Time;durP1;ratioP1;P1;durP2;ratioP2;P2;SDS_P1;SDS_P2;PMS_P1;PMS_P2;Temp;Humidity;BMP_temperature;BMP_pressure;BME280_temperature;BME280_humidity;BME280_pressure;Samples;Min_cycle;Max_cycle;Signal;HPM_P1;HPM_P2
2022/11/19 00:01:05;;;;;;;8.57;3.60;;;;;;;;;;5072082;28;20111;-72
2022/11/19 00:03:36;;;;;;;5.45;2.45;;;;;;;;;;5072119;28;20016;-73
2022/11/19 00:06:13;;;;;;;6.40;2.50;;;;;;;;;;5083539;28;20806;-72
2022/11/19 00:08:43;;;;;;;2.72;1.90;;;;;;;;;;5093815;28;20021;-74
2022/11/19 00:11:13;;;;;;;3.33;1.70;;;;;;;;;;5092172;28;20027;-74
2022/11/19 00:13:43;;;;;;;4.50;1.40;;;;;;;;;;5089165;28;20106;-74
2022/11/19 00:16:16;;;;;;;2.95;1.40;;;;;;;;;;5048273;28;20032;-74
2022/11/19 00:18:45;;;;;;;3.78;1.65;;;;;;;;;;5054654;28;20071;-73
2022/11/19 00:21:15;;;;;;;5.22;1.50;;;;;;;;;;5070987;28;20148;-73
2022/11/19 00:23:44;;;;;;;;;;;;;;;;;;5073210;28;20025;-74
2022/11/19 00:26:15;;;;;;;4.45;1.42;;;;;;;;;;5065592;28;20313;-72
2022/11/19 00:28:44;;;;;;;3.05;1.70;;;;;;;;;;5052646;28;20025;-74
2022/11/19 00:31:15;;;;;;;3.55;1.77;;;;;;;;;;5061138;28;20141;-73
2022/11/19 00:33:45;;;;;;;4.93;1.45;;;;;;;;;;5072231;28;20033;-74
2022/11/19 00:36:15;;;;;;;2.10;1.73;;;;;;;;;;5071776;28;20035;-73
2022/11/19 00:38:44;;;;;;;;;;;;;;;;;;5072433;28;20031;-72
2022/11/19 00:41:13;;;;;;;3.10;1.67;;;;;;;;;;5072205;28;19912;-74
2022/11/19 00:43:45;;;;;;;5.05;1.80;;;;;;;;;;5072156;28;20028;-73
2022/11/19 00:46:15;;;;;;;4.22;1.73;;;;;;;;;;5070347;28;20080;-73
2022/11/19 00:48:44;;;;;;;4.97;1.73;;;;;;;;;;5071834;28;20024;-74
2022/11/19 00:51:13;;;;;;;2.50;1.52;;;;;;;;;;5070774;28;20485;-73
2022/11/19 00:53:42;;;;;;;4.28;1.95;;;;;;;;;;5071453;28;20032;-73
2022/11/19 00:56:13;;;;;;;3.10;1.25;;;;;;;;;;5074992;28;20187;-73
2022/11/19 00:58:41;;;;;;;2.30;0.98;;;;;;;;;;5079107;28;20024;-74
2022/11/19 01:01:09;;;;;;;2.35;1.00;;;;;;;;;;5072118;28;20473;-74
2022/11/19 01:03:36;;;;;;;2.33;1.02;;;;;;;;;;5057010;28;20025;-73
2022/11/19 01:06:03;;;;;;;1.77;0.88;;;;;;;;;;5051156;28;20024;-73
2022/11/19 01:08:30;;;;;;;1.77;0.70;;;;;;;;;;5052324;28;20075;-73
2022/11/19 01:11:04;;;;;;;1.83;0.80;;;;;;;;;;5069053;28;20078;-73
2022/11/19 01:13:34;;;;;;;1.30;0.50;;;;;;;;;;5072128;28;20107;-73
2022/11/19 01:16:02;;;;;;;3.30;0.88;;;;;;;;;;5065897;28;20024;-73
2022/11/19 01:18:29;;;;;;;0.85;0.60;;;;;;;;;;5071593;28;20016;-72
2022/11/19 01:20:56;;;;;;;2.97;1.40;;;;;;;;;;5070073;28;20498;-72
2022/11/19 01:23:23;;;;;;;1.25;0.65;;;;;;;;;;5071742;28;20040;-72
2022/11/19 01:25:51;;;;;;;1.45;0.70;;;;;;;;;;5070040;28;20029;-73
2022/11/19 01:28:18;;;;;;;2.03;1.00;;;;;;;;;;5071653;28;20032;-73
2022/11/19 01:30:45;;;;;;;0.73;0.68;;;;;;;;;;5070816;28;20082;-73
2022/11/19 01:33:12;;;;;;;1.85;0.80;;;;;;;;;;5071060;28;20074;-73
2022/11/19 01:35:40;;;;;;;1.95;1.13;;;;;;;;;;5068624;28;20472;-73
2022/11/19 01:38:07;;;;;;;1.90;0.68;;;;;;;;;;5051124;28;20029;-73
2022/11/19 01:40:41;;;;;;;0.85;0.50;;;;;;;;;;5050798;28;20075;-73
2022/11/19 01:43:10;;;;;;;0.65;0.55;;;;;;;;;;5051328;28;20107;-73
2022/11/19 01:45:40;;;;;;;1.30;0.50;;;;;;;;;;5051250;28;20032;-73
2022/11/19 01:48:17;;;;;;;1.42;0.60;;;;;;;;;;5066524;28;20491;-73
2022/11/19 01:50:58;;;;;;;2.33;0.60;;;;;;;;;;5068996;28;20028;-73
2022/11/19 01:53:30;;;;;;;1.35;0.60;;;;;;;;;;5071633;28;20416;-73
2022/11/19 01:56:02;;;;;;;4.20;0.60;;;;;;;;;;5070125;28;20028;-73
2022/11/19 01:58:33;;;;;;;2.42;0.35;;;;;;;;;;5070081;28;20417;-73
2022/11/19 02:01:02;;;;;;;;;;;;;;;;;;5065301;28;20025;-73
2022/11/19 02:03:33;;;;;;;0.73;0.52;;;;;;;;;;5051328;28;19912;-72
2022/11/19 02:06:03;;;;;;;1.90;0.55;;;;;;;;;;5056558;28;20481;-72
2022/11/19 02:08:32;;;;;;;;;;;;;;;;;;5071650;28;20033;-72
2022/11/19 02:11:20;;;;;;;2.00;0.40;;;;;;;;;;5068772;28;19962;-73
2022/11/19 02:13:57;;;;;;;0.80;0.60;;;;;;;;;;5052430;28;20086;-73
2022/11/19 02:16:28;;;;;;;1.10;0.70;;;;;;;;;;5070602;28;20025;-73
2022/11/19 02:19:00;;;;;;;1.02;0.55;;;;;;;;;;5070807;28;20020;-73
2022/11/19 02:21:39;;;;;;;1.48;0.70;;;;;;;;;;5068995;28;20436;-73
2022/11/19 02:24:15;;;;;;;3.70;0.93;;;;;;;;;;5068840;28;20136;-73
2022/11/19 02:26:45;;;;;;;1.88;1.02;;;;;;;;;;5070119;28;20470;-72
2022/11/19 02:29:20;;;;;;;2.85;1.42;;;;;;;;;;5066835;28;20052;-72
2022/11/19 02:32:06;;;;;;;2.45;1.00;;;;;;;;;;5049802;28;20052;-72
2022/11/19 02:34:47;;;;;;;3.47;1.50;;;;;;;;;;5052839;28;20025;-73
2022/11/19 02:37:20;;;;;;;2.33;1.02;;;;;;;;;;5054733;28;20029;-72
2022/11/19 02:40:13;;;;;;;2.38;0.90;;;;;;;;;;5064938;28;20032;-72
2022/11/19 02:42:48;;;;;;;3.05;1.00;;;;;;;;;;5072122;28;20037;-72
2022/11/19 02:45:31;;;;;;;2.85;0.70;;;;;;;;;;5074687;28;20469;-72
2022/11/19 02:48:01;;;;;;;1.65;1.00;;;;;;;;;;5070740;28;20077;-71
2022/11/19 02:50:32;;;;;;;2.78;0.95;;;;;;;;;;5074092;28;20111;-72
2022/11/19 02:52:59;;;;;;;3.60;1.30;;;;;;;;;;5073297;28;20024;-72
2022/11/19 02:55:25;;;;;;;3.30;0.90;;;;;;;;;;5072865;28;20428;-74
2022/11/19 02:58:01;;;;;;;2.42;0.90;;;6.10;99.90;;;;;;5073382;28;20400;-72
2022/11/19 03:06:11;;;;;;;1.60;1.00;;;6.20;99.90;;;;;;5074827;28;20044;-72
2022/11/19 03:08:37;;;;;;;1.33;0.80;;;6.30;99.90;;;;;;5076252;28;20449;-72
2022/11/19 03:11:25;;;;;;;2.00;1.00;;;6.30;99.90;;;;;;5074029;28;20496;-72
2022/11/19 03:17:20;;;;;;;1.55;1.10;;;6.30;99.90;;;;;;5058646;28;20366;-73
2022/11/19 03:20:08;;;;;;;1.80;0.75;;;6.30;99.90;;;;;;5052821;28;20474;-72
2022/11/19 03:22:44;;;;;;;1.33;0.90;;;6.30;99.90;;;;;;5055792;28;20044;-72
2022/11/19 03:25:16;;;;;;;2.40;0.95;;;6.30;99.90;;;;;;5074123;28;20435;-73
2022/11/19 03:27:48;;;;;;;2.30;1.50;;;6.30;99.90;;;;;;5074166;28;20462;-73
2022/11/19 03:30:16;;;;;;;2.55;1.10;;;6.30;99.90;;;;;;5073714;28;20024;-73
2022/11/19 03:33:12;;;;;;;3.65;1.20;;;6.40;99.90;;;;;;5073004;28;20036;-73
2022/11/19 03:35:50;;;;;;;2.22;0.95;;;6.40;99.90;;;;;;5063206;28;20032;-72
2022/11/19 03:38:23;;;;;;;1.13;0.93;;;6.40;99.90;;;;;;5054121;28;20033;-73
2022/11/19 03:40:50;;;;;;;3.45;2.10;;;6.50;99.90;;;;;;5052983;28;20032;-73
2022/11/19 03:43:18;;;;;;;2.25;1.17;;;6.50;99.90;;;;;;5054048;28;20071;-73
2022/11/19 03:45:46;;;;;;;4.20;1.52;;;6.40;99.90;;;;;;5051969;28;20021;-73
2022/11/19 03:48:14;;;;;;;1.33;1.15;;;6.40;99.90;;;;;;5061442;28;20397;-72
2022/11/19 03:50:58;;;;;;;3.60;1.40;;;6.50;99.90;;;;;;5063324;28;20020;-72
2022/11/19 03:53:25;;;;;;;1.80;1.38;;;6.50;99.90;;;;;;5063578;28;20052;-72
2022/11/19 03:56:01;;;;;;;1.58;1.17;;;6.50;99.90;;;;;;5060840;28;20518;-72
2022/11/19 03:58:28;;;;;;;1.70;1.15;;;6.50;99.90;;;;;;5061537;28;20017;-72
2022/11/19 04:00:54;;;;;;;1.45;1.10;;;6.50;99.90;;;;;;5062141;28;20036;-72
2022/11/19 04:03:20;;;;;;;3.25;1.20;;;6.50;99.90;;;;;;5063275;28;20048;-73
2022/11/19 04:11:11;;;;;;;4.53;1.00;;;6.60;99.90;;;;;;5197939;23;20132;-72
2022/11/19 04:13:37;;;;;;;1.38;1.05;;;6.70;99.90;;;;;;5049966;28;20108;-73
2022/11/19 04:16:02;;;;;;;2.50;1.00;;;6.70;99.90;;;;;;5045875;28;20071;-73
2022/11/19 04:18:28;;;;;;;2.83;1.20;;;6.60;99.90;;;;;;5052254;28;20441;-72
2022/11/19 04:20:54;;;;;;;1.42;1.33;;;6.70;99.90;;;;;;5052427;28;20487;-72
2022/11/19 04:23:19;;;;;;;1.42;1.10;;;6.60;99.90;;;;;;5053190;28;20041;-73
2022/11/19 04:25:46;;;;;;;2.80;0.95;;;6.60;99.90;;;;;;5051988;28;20074;-72
2022/11/19 04:28:12;;;;;;;3.22;1.67;;;6.50;99.90;;;;;;5050128;28;20033;-72
2022/11/19 04:30:37;;;;;;;1.70;1.10;;;6.50;99.90;;;;;;5050475;28;20028;-72
2022/11/19 04:33:03;;;;;;;2.90;1.08;;;6.50;99.90;;;;;;5052077;28;20028;-72
2022/11/19 04:35:29;;;;;;;1.45;1.33;;;6.50;99.90;;;;;;5051765;28;20123;-72
2022/11/19 04:37:55;;;;;;;6.07;2.45;;;6.40;99.90;;;;;;5052516;28;20210;-72
2022/11/19 04:40:20;;;;;;;3.00;1.90;;;6.50;99.90;;;;;;5052057;28;20039;-72
2022/11/19 04:42:46;;;;;;;2.20;1.42;;;6.40;99.90;;;;;;5052467;28;20114;-72
2022/11/19 04:45:11;;;;;;;2.17;1.45;;;6.40;99.90;;;;;;5050752;28;20025;-72
2022/11/19 04:47:37;;;;;;;2.13;1.58;;;6.40;99.90;;;;;;5050814;28;20033;-72
2022/11/19 04:50:03;;;;;;;1.98;1.20;;;6.40;99.90;;;;;;5050059;28;20056;-72
2022/11/19 04:52:30;;;;;;;1.80;1.13;;;6.40;99.90;;;;;;5051094;28;20430;-72
2022/11/19 04:54:56;;;;;;;2.33;1.40;;;6.40;99.90;;;;;;5039975;28;20103;-72
2022/11/19 04:57:21;;;;;;;3.22;1.20;;;6.30;99.90;;;;;;5052070;28;20113;-72
2022/11/19 04:59:47;;;;;;;3.63;1.40;;;6.30;99.90;;;;;;5051267;28;20036;-72
2022/11/19 05:02:12;;;;;;;3.53;1.50;;;6.30;99.90;;;;;;5051098;28;20428;-75
2022/11/19 05:04:38;;;;;;;4.20;1.40;;;6.30;99.90;;;;;;5050803;28;20036;-72
2022/11/19 05:07:03;;;;;;;2.45;1.63;;;6.40;99.90;;;;;;5053733;28;20067;-71
2022/11/19 05:09:29;;;;;;;2.53;1.38;;;6.40;99.90;;;;;;5051291;28;20439;-71
2022/11/19 05:11:54;;;;;;;2.35;1.40;;;6.40;99.90;;;;;;5052079;28;20029;-73
2022/11/19 05:14:20;;;;;;;1.42;1.30;;;6.40;99.90;;;;;;5051579;28;20051;-73
2022/11/19 05:16:46;;;;;;;3.60;1.85;;;6.40;99.90;;;;;;5049885;28;20131;-73
2022/11/19 05:19:11;;;;;;;2.28;1.65;;;6.40;99.90;;;;;;5034535;28;20025;-72
2022/11/19 05:21:37;;;;;;;1.80;1.50;;;6.40;99.90;;;;;;5051043;28;20531;-73
2022/11/19 05:24:02;;;;;;;2.97;1.60;;;6.40;99.90;;;;;;5051045;28;20021;-73
2022/11/19 05:26:28;;;;;;;4.63;1.77;;;6.30;99.90;;;;;;5050586;28;20036;-74
2022/11/19 05:28:54;;;;;;;3.25;1.90;;;6.40;99.90;;;;;;5052189;28;20029;-72
2022/11/19 05:31:19;;;;;;;4.72;1.90;;;6.40;99.90;;;;;;5051410;28;20020;-72
2022/11/19 05:33:45;;;;;;;2.60;1.83;;;6.40;99.90;;;;;;5050266;28;20033;-73
2022/11/19 05:36:10;;;;;;;4.35;3.38;;;6.50;99.90;;;;;;5050182;28;20040;-73
2022/11/19 05:38:36;;;;;;;2.60;2.05;;;6.40;99.90;;;;;;5050838;28;20075;-73
2022/11/19 05:41:01;;;;;;;2.17;1.75;;;6.40;99.90;;;;;;5051138;28;20033;-73
2022/11/19 05:43:27;;;;;;;2.95;1.85;;;6.40;99.90;;;;;;5051352;28;20033;-74
2022/11/19 05:45:53;;;;;;;2.80;1.58;;;6.40;99.90;;;;;;5050883;28;20033;-73
2022/11/19 05:48:18;;;;;;;3.58;1.73;;;6.50;99.90;;;;;;5050988;28;20067;-73
2022/11/19 05:50:44;;;;;;;2.70;1.75;;;6.50;99.90;;;;;;5049521;28;20112;-73
2022/11/19 05:53:09;;;;;;;1.63;1.50;;;6.50;99.90;;;;;;5051407;28;20029;-73
2022/11/19 05:55:35;;;;;;;3.80;1.67;;;6.50;99.90;;;;;;5050277;28;20028;-73
2022/11/19 05:58:01;;;;;;;2.47;1.83;;;6.60;99.90;;;;;;5051298;28;20108;-74
2022/11/19 06:00:26;;;;;;;1.70;1.58;;;6.60;99.90;;;;;;5050040;28;20032;-72
2022/11/19 06:02:52;;;;;;;6.32;2.17;;;6.60;99.90;;;;;;5039319;28;20041;-73
2022/11/19 06:05:17;;;;;;;1.75;1.40;;;6.60;99.90;;;;;;5050462;28;20438;-71
2022/11/19 06:07:43;;;;;;;2.90;1.80;;;6.50;99.90;;;;;;5049567;28;20029;-73
2022/11/19 06:10:09;;;;;;;3.92;1.73;;;6.60;99.90;;;;;;5049764;28;20102;-73
2022/11/19 06:12:34;;;;;;;2.10;1.50;;;6.50;99.90;;;;;;5049348;28;20040;-73
2022/11/19 06:15:00;;;;;;;1.70;1.60;;;6.50;99.90;;;;;;5050904;28;20036;-72
2022/11/19 06:17:27;;;;;;;1.58;1.48;;;6.40;99.90;;;;;;5051108;28;20067;-72
2022/11/19 06:19:52;;;;;;;2.03;1.38;;;6.50;99.90;;;;;;5047453;28;20025;-73
2022/11/19 06:22:18;;;;;;;1.63;1.40;;;6.40;99.90;;;;;;5041363;28;20033;-72
2022/11/19 06:24:44;;;;;;;1.50;1.40;;;6.40;99.90;;;;;;5044422;28;20033;-72
2022/11/19 06:27:09;;;;;;;3.00;1.45;;;6.40;99.90;;;;;;5042581;28;20060;-72
2022/11/19 06:29:35;;;;;;;1.75;1.27;;;6.40;99.90;;;;;;5042285;28;20052;-72
2022/11/19 06:32:00;;;;;;;1.60;1.35;;;6.40;99.90;;;;;;5043590;28;20024;-73
2022/11/19 06:34:26;;;;;;;3.58;2.47;;;6.40;99.90;;;;;;5045648;28;20436;-72
2022/11/19 06:36:51;;;;;;;1.60;1.35;;;6.30;99.90;;;;;;5045503;28;20071;-73
2022/11/19 06:39:18;;;;;;;1.88;1.40;;;6.30;99.90;;;;;;5042448;28;20494;-72
2022/11/19 06:41:43;;;;;;;1.88;1.17;;;6.20;99.90;;;;;;5040684;28;20037;-72
2022/11/19 06:44:09;;;;;;;2.38;1.25;;;6.20;99.90;;;;;;5045056;28;20029;-72
2022/11/19 06:46:35;;;;;;;1.65;1.20;;;6.20;99.90;;;;;;5043025;28;20128;-72
2022/11/19 06:49:02;;;;;;;2.83;1.83;;;6.20;99.90;;;;;;5043391;28;20535;-72
2022/11/19 06:51:28;;;;;;;1.67;1.50;;;6.10;99.90;;;;;;5045105;28;20356;-72
2022/11/19 06:53:53;;;;;;;4.82;1.65;;;6.10;99.90;;;;;;5041626;28;20116;-72
2022/11/19 06:56:19;;;;;;;4.35;1.65;;;6.10;99.90;;;;;;5040792;28;20029;-72
2022/11/19 06:58:45;;;;;;;2.38;1.70;;;6.20;99.90;;;;;;5040851;28;20111;-72
2022/11/19 07:01:10;;;;;;;2.83;1.70;;;6.20;99.90;;;;;;5041250;28;20063;-72
2022/11/19 07:03:36;;;;;;;1.90;1.70;;;6.20;99.90;;;;;;5040029;28;20033;-72
2022/11/19 07:06:04;;;;;;;2.60;1.60;;;6.30;99.90;;;;;;5040579;28;20040;-72
2022/11/19 07:08:33;;;;;;;3.10;1.70;;;6.30;99.90;;;;;;5043595;28;20029;-73
2022/11/19 07:10:58;;;;;;;4.13;1.60;;;6.30;99.90;;;;;;5042276;28;20049;-72
2022/11/19 07:13:55;;;;;;;2.17;1.60;;;6.30;99.90;;;;;;5045344;28;20434;-72
2022/11/19 07:16:10;;;;;;;3.40;1.63;;;6.30;99.90;;;;;;5040584;28;20409;-72
2022/11/19 07:18:35;;;;;;;3.22;1.77;;;6.30;99.90;;;;;;5044018;28;20071;-73
2022/11/19 07:21:01;;;;;;;2.20;1.80;;;6.30;99.90;;;;;;5042747;28;20029;-73
2022/11/19 07:23:26;;;;;;;1.63;1.52;;;6.30;99.90;;;;;;5044723;28;20041;-73
2022/11/19 07:25:59;;;;;;;2.70;1.95;;;6.20;99.90;;;;;;5043828;28;20068;-73
2022/11/19 07:28:24;;;;;;;2.20;1.75;;;6.20;99.90;;;;;;5048653;28;20020;-73
2022/11/19 07:30:50;;;;;;;5.40;1.90;;;6.20;99.90;;;;;;5028141;28;20029;-72
2022/11/19 07:33:15;;;;;;;2.28;1.88;;;6.10;99.90;;;;;;5054110;28;20036;-72
2022/11/19 07:35:41;;;;;;;2.13;1.60;;;6.20;99.90;;;;;;5051535;28;20492;-71
2022/11/19 07:38:06;;;;;;;3.35;1.73;;;6.20;99.90;;;;;;5040870;28;20041;-72
2022/11/19 07:40:32;;;;;;;2.22;1.73;;;6.20;99.90;;;;;;5050802;28;20021;-72
2022/11/19 07:42:57;;;;;;;2.97;2.17;;;6.20;99.90;;;;;;5050239;28;20393;-72
2022/11/19 07:45:23;;;;;;;1.77;1.63;;;6.30;99.90;;;;;;5052271;28;20385;-72
2022/11/19 07:47:49;;;;;;;3.88;1.67;;;6.40;99.90;;;;;;5046059;28;20025;-72
2022/11/19 07:50:16;;;;;;;3.20;2.13;;;6.50;99.90;;;;;;5048871;28;20485;-76
2022/11/19 07:52:41;;;;;;;2.53;1.70;;;6.60;99.90;;;;;;5048618;28;20078;-72
2022/11/19 07:55:07;;;;;;;3.25;1.38;;;6.80;99.90;;;;;;5051224;28;20465;-72
2022/11/19 07:57:33;;;;;;;1.85;1.38;;;6.90;99.90;;;;;;5052030;28;20027;-72
2022/11/19 07:59:59;;;;;;;2.25;1.40;;;7.00;99.90;;;;;;5033913;28;20108;-72
2022/11/19 08:02:24;;;;;;;2.70;1.40;;;7.10;99.90;;;;;;5045777;28;20025;-72
2022/11/19 08:04:50;;;;;;;2.63;1.33;;;7.20;99.90;;;;;;5041988;28;20107;-68
2022/11/19 08:07:16;;;;;;;1.90;1.23;;;7.20;99.90;;;;;;5050327;28;20055;-70
2022/11/19 08:09:41;;;;;;;2.03;1.23;;;7.30;99.90;;;;;;5051189;28;20040;-73
2022/11/19 08:12:07;;;;;;;1.63;1.25;;;7.40;99.90;;;;;;5046461;28;20236;-76
2022/11/19 08:14:32;;;;;;;1.73;1.33;;;7.40;99.90;;;;;;5039428;28;20028;-72
2022/11/19 08:19:42;;;;;;;2.80;1.40;;;7.50;99.90;;;;;;5049547;28;20123;-73
2022/11/19 08:22:10;;;;;;;2.10;1.25;;;7.60;99.90;;;;;;5048893;28;20053;-74
2022/11/19 08:24:36;;;;;;;1.00;0.88;;;7.60;99.90;;;;;;5051657;28;20029;-74
2022/11/19 08:27:01;;;;;;;1.65;1.10;;;7.60;99.90;;;;;;5028144;28;20444;-74
2022/11/19 08:29:27;;;;;;;1.60;0.90;;;7.60;99.90;;;;;;5049387;28;20029;-76
2022/11/19 08:31:53;;;;;;;3.13;1.38;;;7.60;99.90;;;;;;5045117;28;20117;-73
2022/11/19 08:34:18;;;;;;;1.70;1.00;;;7.70;99.90;;;;;;5051230;28;20434;-72
2022/11/19 08:36:44;;;;;;;1.75;1.02;;;7.70;99.90;;;;;;5049397;28;20033;-73
2022/11/19 08:39:10;;;;;;;3.63;1.30;;;7.80;99.90;;;;;;5048522;28;20465;-72
2022/11/19 08:44:20;;;;;;;1.73;0.82;;;7.80;99.90;;;;;;5049546;28;20071;-70
2022/11/19 08:46:46;;;;;;;1.77;1.20;;;7.90;99.90;;;;;;5048886;28;20041;-70
2022/11/19 08:49:11;;;;;;;1.63;0.80;;;7.90;99.90;;;;;;5044653;28;20088;-71
2022/11/19 08:51:37;;;;;;;1.33;0.82;;;7.90;99.90;;;;;;5045313;28;20121;-69
2022/11/19 08:54:04;;;;;;;1.75;0.75;;;8.00;99.90;;;;;;5048884;28;20493;-72
2022/11/19 08:56:30;;;;;;;3.80;0.60;;;8.00;99.90;;;;;;5045795;28;20029;-71
2022/11/19 08:58:56;;;;;;;2.25;0.70;;;8.10;99.90;;;;;;5042491;28;20422;-70
2022/11/19 09:01:22;;;;;;;1.40;1.02;;;8.20;99.90;;;;;;5050795;28;20032;-70
2022/11/19 09:03:48;;;;;;;0.80;0.70;;;8.20;99.90;;;;;;5047282;28;20033;-70
2022/11/19 09:06:13;;;;;;;1.17;0.77;;;8.30;99.90;;;;;;5060140;28;20477;-71
2022/11/19 09:08:39;;;;;;;1.60;0.68;;;8.30;99.90;;;;;;5050736;28;20025;-71
2022/11/19 09:11:13;;;;;;;1.95;1.10;;;8.40;99.90;;;;;;5057969;28;20128;-70
2022/11/19 09:13:39;;;;;;;2.72;1.10;;;8.50;99.90;;;;;;5050488;28;20033;-71
2022/11/19 09:16:05;;;;;;;1.17;0.98;;;8.60;99.90;;;;;;5051313;28;20549;-71
2022/11/19 09:18:32;;;;;;;1.67;0.82;;;8.60;99.90;;;;;;5043516;28;20021;-68
2022/11/19 09:20:57;;;;;;;0.88;0.75;;;8.80;99.90;;;;;;5050334;28;20056;-69
2022/11/19 09:23:25;;;;;;;0.70;0.70;;;8.80;99.90;;;;;;5049377;28;20029;-68
2022/11/19 09:26:12;;;;;;;1.95;0.82;;;8.90;99.90;;;;;;5049362;28;20055;-70
2022/11/19 09:28:38;;;;;;;0.68;0.60;;;9.10;99.90;;;;;;5048783;28;20041;-73
2022/11/19 09:31:06;;;;;;;1.50;0.80;;;9.00;99.90;;;;;;5049157;28;20029;-71
2022/11/19 09:33:34;;;;;;;1.95;0.75;;;9.10;99.90;;;;;;5038047;28;20061;-71
2022/11/19 09:36:00;;;;;;;3.17;0.85;;;9.20;99.90;;;;;;5049789;28;20070;-69
2022/11/19 09:38:26;;;;;;;1.33;0.80;;;9.20;99.90;;;;;;5039398;28;20033;-71
2022/11/19 09:40:54;;;;;;;0.70;0.70;;;9.30;99.90;;;;;;5048966;28;20051;-69
2022/11/19 09:44:04;;;;;;;1.35;0.90;;;9.30;99.90;;;;;;5039511;28;20453;-72
2022/11/19 09:46:47;;;;;;;2.05;0.80;;;9.30;99.90;;;;;;5050053;28;20037;-69
2022/11/19 09:49:18;;;;;;;0.73;0.60;;;9.30;99.90;;;;;;5048050;28;20107;-70
2022/11/19 09:51:51;;;;;;;1.10;0.80;;;9.30;99.90;;;;;;5047752;28;20195;-69
2022/11/19 09:54:19;;;;;;;1.42;0.70;;;9.30;99.90;;;;;;5050437;28;20033;-70
2022/11/19 09:56:46;;;;;;;1.70;0.82;;;9.20;99.90;;;;;;5048109;28;20048;-73
2022/11/19 09:59:37;;;;;;;0.82;0.82;;;9.20;99.90;;;;;;5038894;28;20480;-71
2022/11/19 10:02:17;;;;;;;0.75;0.52;;;9.00;99.90;;;;;;5046624;28;20032;-68
2022/11/19 10:04:43;;;;;;;3.03;0.88;;;9.00;99.90;;;;;;5043155;28;20037;-70
2022/11/19 10:07:21;;;;;;;2.45;1.17;;;8.90;99.90;;;;;;5045698;28;20041;-69
2022/11/19 10:10:05;;;;;;;1.95;0.60;;;8.90;99.90;;;;;;5043423;28;20524;-70
2022/11/19 10:12:42;;;;;;;3.65;0.57;;;8.90;99.90;;;;;;5037937;28;20025;-68
2022/11/19 10:15:25;;;;;;;2.47;0.80;;;8.80;99.90;;;;;;5049926;28;20029;-68
2022/11/19 10:18:27;;;;;;;2.00;1.00;;;8.80;99.90;;;;;;5043157;28;20064;-69
2022/11/19 10:21:13;;;;;;;0.70;0.70;;;8.80;99.90;;;;;;5016732;28;20033;-71
2022/11/19 10:23:41;;;;;;;1.65;0.80;;;8.70;99.90;;;;;;5045450;28;20052;-72
2022/11/19 10:26:13;;;;;;;1.42;0.70;;;8.80;99.90;;;;;;5049559;28;20063;-73
2022/11/19 10:28:44;;;;;;;2.50;0.85;;;8.90;99.90;;;;;;5042025;28;20025;-71
2022/11/19 10:31:46;;;;;;;2.00;0.98;;;8.90;99.90;;;;;;5045279;28;20025;-69
2022/11/19 10:34:35;;;;;;;2.42;0.88;;;9.00;99.90;;;;;;5042652;28;20117;-68
2022/11/19 10:37:13;;;;;;;1.15;1.08;;;9.20;99.90;;;;;;5043084;28;20021;-68
2022/11/19 10:39:46;;;;;;;1.02;0.80;;;9.40;99.90;;;;;;5041189;28;20465;-69
2022/11/19 10:42:29;;;;;;;2.65;0.90;;;9.50;99.90;;;;;;5045744;28;20052;-68
2022/11/19 10:44:59;;;;;;;1.45;0.95;;;9.70;99.90;;;;;;5048368;28;20621;-69
2022/11/19 10:47:32;;;;;;;2.15;1.20;;;9.80;99.90;;;;;;5045866;28;20029;-68
2022/11/19 10:49:58;;;;;;;3.63;1.20;;;9.80;99.90;;;;;;5048584;28;20033;-69
2022/11/19 10:52:32;;;;;;;5.40;1.10;;;9.90;99.90;;;;;;5046937;28;20049;-69
2022/11/19 10:55:20;;;;;;;2.90;0.93;;;10.00;99.90;;;;;;5050255;28;20028;-70
2022/11/19 10:57:48;;;;;;;1.25;1.10;;;9.90;99.90;;;;;;5042836;28;20094;-68
2022/11/19 11:00:15;;;;;;;4.47;1.20;;;9.80;99.90;;;;;;5052290;28;20028;-69
2022/11/19 11:02:55;;;;;;;2.35;1.15;;;9.80;99.90;;;;;;5052280;28;20029;-70
2022/11/19 11:05:21;;;;;;;;;;;9.60;99.90;;;;;;5053072;28;20064;-69
2022/11/19 11:07:55;;;;;;;3.47;1.00;;;9.40;99.90;;;;;;5045987;28;19944;-72
2022/11/19 11:10:31;;;;;;;3.05;1.20;;;9.30;99.90;;;;;;5050232;28;20088;-67
2022/11/19 11:15:53;;;;;;;2.67;1.45;;;9.20;99.90;;;;;;4999935;28;20037;-67
2022/11/19 11:18:25;;;;;;;2.88;1.50;;;9.10;99.90;;;;;;5046803;28;20021;-69
2022/11/19 11:20:51;;;;;;;2.10;1.35;;;9.10;99.90;;;;;;5050725;28;20370;-71
2022/11/19 11:23:48;;;;;;;2.00;1.40;;;9.10;99.90;;;;;;5050865;28;20043;-69
2022/11/19 11:26:19;;;;;;;3.90;1.50;;;9.10;99.90;;;;;;5052374;28;20075;-70
2022/11/19 11:29:25;;;;;;;2.55;0.82;;;9.10;99.90;;;;;;5034281;28;20025;-69
2022/11/19 11:31:52;;;;;;;1.67;0.70;;;9.20;99.90;;;;;;5046979;28;20043;-70
2022/11/19 11:34:27;;;;;;;2.03;1.10;;;9.20;99.90;;;;;;5053244;28;20488;-69
2022/11/19 11:36:54;;;;;;;1.70;1.00;;;9.20;99.90;;;;;;5048351;28;20021;-69
2022/11/19 11:39:35;;;;;;;4.65;1.33;;;9.30;99.90;;;;;;5049728;28;20021;-70
2022/11/19 11:42:02;;;;;;;4.97;1.63;;;9.30;99.90;;;;;;5047462;28;20025;-69
2022/11/19 11:44:32;;;;;;;4.10;1.08;;;9.20;99.90;;;;;;5050865;28;20037;-69
2022/11/19 11:47:01;;;;;;;1.92;0.82;;;9.20;99.90;;;;;;5048469;28;20470;-69
2022/11/19 11:49:28;;;;;;;4.18;0.95;;;9.20;99.90;;;;;;5052038;28;20029;-70
2022/11/19 11:52:16;;;;;;;4.70;1.10;;;9.20;99.90;;;;;;5051468;28;20150;-73
2022/11/19 11:55:22;;;;;;;2.28;0.98;;;9.20;99.90;;;;;;5035189;28;20033;-69
2022/11/19 11:57:56;;;;;;;2.45;0.70;;;9.20;99.90;;;;;;5036800;28;20049;-69
2022/11/19 12:00:36;;;;;;;2.83;1.02;;;9.10;99.90;;;;;;5052073;28;20025;-68
2022/11/19 12:03:28;;;;;;;;;;;9.10;99.90;;;;;;5040830;28;20032;-68
2022/11/19 12:06:06;;;;;;;3.13;0.80;;;9.00;99.90;;;;;;5035946;28;20375;-67
2022/11/19 12:08:59;;;;;;;3.65;0.80;;;9.00;99.90;;;;;;5040012;28;20090;-69
2022/11/19 12:11:53;;;;;;;4.60;1.20;;;9.10;99.90;;;;;;5050489;28;20052;-71
2022/11/19 12:14:30;;;;;;;3.80;0.90;;;9.00;99.90;;;;;;5044636;28;20055;-73
2022/11/19 12:17:11;;;;;;;1.10;0.68;;;9.00;99.90;;;;;;5045695;28;20048;-70
2022/11/19 12:19:48;;;;;;;5.43;1.35;;;9.00;99.90;;;;;;5050032;28;20033;-73
2022/11/19 12:22:19;;;;;;;2.97;1.17;;;9.00;99.90;;;;;;5048853;28;20025;-73
2022/11/19 12:25:00;;;;;;;1.83;0.93;;;9.00;99.90;;;;;;5053596;28;20400;-73
2022/11/19 12:27:53;;;;;;;3.65;0.80;;;8.80;99.90;;;;;;5045117;28;20106;-72
2022/11/19 12:30:21;;;;;;;1.15;0.70;;;8.50;99.90;;;;;;5051038;28;20388;-69
2022/11/19 12:33:05;;;;;;;6.68;1.13;;;8.20;99.90;;;;;;5046555;28;20028;-67
2022/11/19 12:35:40;;;;;;;2.90;1.20;;;8.00;99.90;;;;;;5050526;28;20040;-68
2022/11/19 12:38:20;;;;;;;5.18;1.40;;;7.90;99.90;;;;;;5040023;28;20032;-69
2022/11/19 12:40:52;;;;;;;;;;;7.80;99.90;;;;;;5047519;28;20135;-70
2022/11/19 12:43:46;;;;;;;7.28;1.73;;;7.70;99.90;;;;;;5048229;28;20007;-69
2022/11/19 12:46:30;;;;;;;4.30;1.67;;;7.70;99.90;;;;;;5045594;28;20087;-69
2022/11/19 12:49:25;;;;;;;4.15;1.38;;;7.70;99.90;;;;;;5047454;28;20025;-71
2022/11/19 12:52:24;;;;;;;3.63;1.50;;;7.70;99.90;;;;;;5045973;28;20052;-70
2022/11/19 12:54:50;;;;;;;4.05;1.15;;;7.90;99.90;;;;;;5046518;28;20488;-70
2022/11/19 12:57:53;;;;;;;2.92;1.95;;;7.80;99.90;;;;;;5048826;28;20044;-70
2022/11/19 13:00:21;;;;;;;2.40;1.02;;;7.80;99.90;;;;;;4994329;28;20045;-70
2022/11/19 13:03:07;;;;;;;1.23;1.00;;;7.80;99.90;;;;;;5041462;28;20064;-69
2022/11/19 13:05:39;;;;;;;2.05;1.13;;;7.70;99.90;;;;;;5050360;28;20112;-68
2022/11/19 13:08:19;;;;;;;4.18;1.30;;;7.80;99.90;;;;;;5042781;28;20036;-69
2022/11/19 13:10:51;;;;;;;2.22;1.40;;;7.70;99.90;;;;;;5043285;28;20489;-69
2022/11/19 13:13:24;;;;;;;4.13;1.60;;;7.80;99.90;;;;;;5044196;28;20033;-70
2022/11/19 13:16:09;;;;;;;2.78;1.33;;;7.80;99.90;;;;;;5049005;28;20029;-72
2022/11/19 13:18:38;;;;;;;1.63;1.10;;;7.80;99.90;;;;;;5038379;28;20124;-67
2022/11/19 13:21:24;;;;;;;3.67;1.02;;;7.90;99.90;;;;;;5048750;28;20104;-69
2022/11/19 13:23:51;;;;;;;4.72;1.38;;;7.90;99.90;;;;;;5047187;28;20024;-70
2022/11/19 13:26:25;;;;;;;4.65;1.55;;;8.00;99.90;;;;;;5050091;28;20035;-68
2022/11/19 13:28:54;;;;;;;3.15;1.40;;;8.00;99.90;;;;;;5046401;28;20099;-71
2022/11/19 13:31:45;;;;;;;3.65;1.45;;;8.00;99.90;;;;;;5049350;28;20024;-71
2022/11/19 13:34:25;;;;;;;5.65;1.00;;;8.00;99.90;;;;;;5042336;28;20040;-70
2022/11/19 13:37:24;;;;;;;1.77;1.25;;;8.00;99.90;;;;;;5048103;28;20392;-71
2022/11/19 13:40:05;;;;;;;2.40;1.20;;;8.00;99.90;;;;;;5048960;28;20025;-70
2022/11/19 13:45:16;;;;;;;2.15;1.20;;;8.00;99.90;;;;;;5047438;28;20051;-70
2022/11/19 13:47:51;;;;;;;3.03;1.42;;;8.00;99.90;;;;;;5040134;28;20034;-69
2022/11/19 13:50:27;;;;;;;3.80;1.40;;;8.00;99.90;;;;;;5047877;28;20029;-69
2022/11/19 13:53:01;;;;;;;5.25;1.40;;;8.00;99.90;;;;;;5048141;28;20492;-70
2022/11/19 13:55:27;;;;;;;2.08;1.30;;;8.00;99.90;;;;;;5050531;28;20033;-69
2022/11/19 13:57:54;;;;;;;3.13;1.13;;;8.10;99.90;;;;;;5048871;28;20104;-68
2022/11/19 14:00:24;;;;;;;4.00;1.50;;;8.10;99.90;;;;;;5049827;28;20025;-68
2022/11/19 14:03:08;;;;;;;;;;;8.10;99.90;;;;;;5039147;28;20074;-70
2022/11/19 14:05:55;;;;;;;3.35;1.73;;;8.10;99.90;;;;;;5048766;28;19936;-70
2022/11/19 14:08:58;;;;;;;4.90;1.60;;;8.10;99.90;;;;;;5037625;28;20036;-70